createdAt,value
2024-03-16T00:01:02.054Z,98274.09
2024-03-16T00:03:30.010Z,98287.94
2024-03-16T00:05:57.682Z,98283.59
2024-03-16T00:08:24.966Z,98274.09
2024-03-16T00:10:52.056Z,98279.25
2024-03-16T00:13:18.773Z,98279.25
2024-03-16T00:15:51.023Z,98266.97
2024-03-16T00:18:18.048Z,98280.22
2024-03-16T00:20:45.084Z,98275.78
2024-03-16T00:23:11.759Z,98271.59
2024-03-16T00:25:38.639Z,98270.72
2024-03-16T00:28:05.942Z,98261.97
2024-03-16T00:30:32.835Z,98250.69
2024-03-16T00:32:59.729Z,98266.28
2024-03-16T00:35:27.551Z,98261.09
2024-03-16T00:37:55.408Z,98258.59
2024-03-16T00:40:22.178Z,98264.75
2024-03-16T00:42:49.022Z,98262.19
2024-03-16T00:45:15.643Z,98261.38
2024-03-16T00:47:42.389Z,98265.81
2024-03-16T00:50:09.306Z,98254.38
2024-03-16T00:52:54.587Z,98255.34
2024-03-16T00:55:21.227Z,98250.91
2024-03-16T00:57:47.902Z,98250.31
2024-03-16T01:00:15.886Z,98247.53
2024-03-16T01:02:43.195Z,98250.31
2024-03-16T01:05:10.273Z,98248.50
2024-03-16T01:07:37.181Z,98244.16
2024-03-16T01:10:04.672Z,98244.16
2024-03-16T01:12:31.367Z,98240.69
2024-03-16T01:14:58.588Z,98245.97
2024-03-16T01:17:25.571Z,98239.81
2024-03-16T01:19:52.258Z,98232.97
2024-03-16T01:22:19.061Z,98231.19
2024-03-16T01:24:45.845Z,98234.81
2024-03-16T01:27:12.481Z,98231.19
2024-03-16T01:29:39.307Z,98230.47
2024-03-16T01:32:09.603Z,98223.47
2024-03-16T01:34:36.813Z,98224.44
2024-03-16T01:37:03.737Z,98225.16
2024-03-16T01:39:30.908Z,98226.13
2024-03-16T01:41:57.833Z,98221.78
2024-03-16T01:44:24.675Z,98224.44
2024-03-16T01:46:51.483Z,98221.94
2024-03-16T01:49:18.140Z,98219.28
2024-03-16T01:51:44.809Z,98224.72
2024-03-16T01:54:11.837Z,98221.22
2024-03-16T01:56:38.654Z,98218.56
2024-03-16T01:59:05.377Z,98225.69
2024-03-16T02:01:32.728Z,98230.97
2024-03-16T02:03:59.756Z,98219.94
2024-03-16T02:06:28.383Z,98232.91
2024-03-16T02:08:55.405Z,98224.13
2024-03-16T02:11:23.136Z,98216.31
2024-03-16T02:13:50.365Z,98220.75
2024-03-16T02:16:17.162Z,98224.38
2024-03-16T02:18:44.193Z,98222.56
2024-03-16T02:21:11.699Z,98217.41
2024-03-16T02:23:40.888Z,98228.00
2024-03-16T02:26:08.749Z,98226.31
2024-03-16T02:28:35.693Z,98226.41
2024-03-16T02:31:02.711Z,98226.31
2024-03-16T02:33:29.893Z,98226.41
2024-03-16T02:35:56.837Z,98224.63
2024-03-16T02:38:24.014Z,98225.72
2024-03-16T02:40:50.784Z,98228.38
2024-03-16T02:43:17.589Z,98223.09
2024-03-16T02:45:44.375Z,98224.78
2024-03-16T02:48:12.481Z,98228.50
2024-03-16T02:50:39.283Z,98225.88
2024-03-16T02:53:05.905Z,98232.94
2024-03-16T02:55:32.485Z,98228.63
2024-03-16T02:57:59.982Z,98228.63
2024-03-16T03:00:28.208Z,98225.97
2024-03-16T03:02:54.973Z,98225.97
2024-03-16T03:05:23.738Z,98228.63
2024-03-16T03:07:50.692Z,98226.09
2024-03-16T03:10:18.020Z,98230.44
2024-03-16T03:12:46.194Z,98229.56
2024-03-16T03:15:13.040Z,98226.22
2024-03-16T03:17:40.572Z,98228.88
2024-03-16T03:20:10.328Z,98233.31
2024-03-16T03:22:37.468Z,98230.81
2024-03-16T03:25:04.986Z,98230.81
2024-03-16T03:27:32.076Z,98234.31
2024-03-16T03:29:58.793Z,98221.31
2024-03-16T03:32:25.640Z,98230.06
2024-03-16T03:34:52.358Z,98231.06
2024-03-16T03:37:19.118Z,98227.44
2024-03-16T03:39:47.689Z,98220.47
2024-03-16T03:42:15.864Z,98222.28
2024-03-16T03:44:51.306Z,98228.41
2024-03-16T03:47:18.348Z,98222.41
2024-03-16T03:49:51.850Z,98225.88
2024-03-16T03:52:19.074Z,98223.38
2024-03-16T03:54:46.076Z,98225.06
2024-03-16T03:57:12.819Z,98222.53
2024-03-16T03:59:39.501Z,98226.00
2024-03-16T04:02:06.241Z,98220.00
2024-03-16T04:04:32.884Z,98224.47
2024-03-16T04:06:59.667Z,98232.25
2024-03-16T04:09:26.458Z,98220.97
2024-03-16T04:11:53.157Z,98229.88
2024-03-16T04:14:20.656Z,98222.78
2024-03-16T04:16:49.338Z,98228.06
2024-03-16T04:19:17.380Z,98227.34
2024-03-16T04:21:45.027Z,98237.81
2024-03-16T04:24:11.823Z,98229.16
2024-03-16T04:26:39.031Z,98232.63
2024-03-16T04:29:07.079Z,98232.75
2024-03-16T04:31:34.010Z,98229.28
2024-03-16T04:34:00.839Z,98235.41
2024-03-16T04:36:27.685Z,98219.72
2024-03-16T04:38:54.315Z,98229.28
2024-03-16T04:41:21.124Z,98231.94
2024-03-16T04:43:48.519Z,98233.72
2024-03-16T04:46:15.836Z,98234.81
2024-03-16T04:48:42.608Z,98242.66
2024-03-16T04:51:09.497Z,98241.78
2024-03-16T04:53:36.177Z,98244.56
2024-03-16T04:56:03.099Z,98233.25
2024-03-16T04:58:29.967Z,98237.59
2024-03-16T05:00:56.704Z,98238.56
2024-03-16T05:03:23.493Z,98242.06
2024-03-16T05:05:53.021Z,98245.66
2024-03-16T05:08:19.608Z,98241.34
2024-03-16T05:10:53.244Z,98257.09
2024-03-16T05:13:20.014Z,98249.28
2024-03-16T05:15:46.743Z,98250.97
2024-03-16T05:18:15.534Z,98253.72
2024-03-16T05:20:42.732Z,98252.88
2024-03-16T05:23:09.605Z,98253.84
2024-03-16T05:25:36.324Z,98252.88
2024-03-16T05:28:03.233Z,98260.00
2024-03-16T05:30:30.186Z,98249.63
2024-03-16T05:32:57.207Z,98256.63
2024-03-16T05:35:29.306Z,98253.22
2024-03-16T05:37:56.513Z,98262.63
2024-03-16T05:40:23.521Z,98253.97
2024-03-16T05:42:50.329Z,98255.78
2024-03-16T05:45:17.292Z,98256.63
2024-03-16T05:47:44.793Z,98255.78
2024-03-16T05:50:11.487Z,98254.94
2024-03-16T05:52:38.987Z,98253.16
2024-03-16T05:55:06.249Z,98253.97
2024-03-16T05:57:33.025Z,98253.16
2024-03-16T05:59:59.701Z,98257.56
2024-03-16T06:02:27.978Z,98252.38
2024-03-16T06:04:54.640Z,98252.28
2024-03-16T06:07:21.776Z,98258.63
2024-03-16T06:09:48.563Z,98258.50
2024-03-16T06:12:15.317Z,98260.22
2024-03-16T06:14:41.929Z,98262.88
2024-03-16T06:17:08.629Z,98265.63
2024-03-16T06:19:35.220Z,98273.44
2024-03-16T06:22:03.769Z,98271.72
2024-03-16T06:24:32.047Z,98273.56
2024-03-16T06:27:06.109Z,98272.63
2024-03-16T06:29:33.476Z,98270.91
2024-03-16T06:32:10.024Z,98275.28
2024-03-16T06:34:36.858Z,98280.56
2024-03-16T06:37:04.486Z,98267.34
2024-03-16T06:39:31.263Z,98280.56
2024-03-16T06:41:58.227Z,98288.50
2024-03-16T06:44:24.989Z,98285.72
2024-03-16T06:46:51.699Z,98283.09
2024-03-16T06:49:18.624Z,98290.19
2024-03-16T06:51:45.401Z,98286.69
2024-03-16T06:54:13.618Z,98289.34
2024-03-16T06:56:40.731Z,98298.97
2024-03-16T06:59:07.400Z,98302.56
2024-03-16T07:01:34.099Z,98303.50
2024-03-16T07:04:00.961Z,98306.06
2024-03-16T07:06:27.543Z,98308.72
2024-03-16T07:08:54.234Z,98313.16
2024-03-16T07:11:21.177Z,98312.19
2024-03-16T07:13:47.929Z,98318.44
2024-03-16T07:16:16.233Z,98311.38
2024-03-16T07:18:44.577Z,98309.88
2024-03-16T07:21:11.652Z,98320.97
2024-03-16T07:23:38.388Z,98324.47
2024-03-16T07:26:06.888Z,98320.13
2024-03-16T07:28:35.552Z,98326.97
2024-03-16T07:31:04.048Z,98325.06
2024-03-16T07:33:31.399Z,98330.22
2024-03-16T07:35:59.462Z,98331.91
2024-03-16T07:38:26.158Z,98334.56
2024-03-16T07:40:53.339Z,98336.13
2024-03-16T07:43:21.566Z,98333.47
2024-03-16T07:45:51.602Z,98341.28
2024-03-16T07:48:18.572Z,98328.41
2024-03-16T07:50:45.189Z,98335.84
2024-03-16T07:53:12.268Z,98345.63
2024-03-16T07:55:39.583Z,98345.50
2024-03-16T07:58:06.270Z,98342.75
2024-03-16T08:00:33.040Z,98340.09
2024-03-16T08:02:59.915Z,98343.44
2024-03-16T08:05:26.534Z,98339.09
2024-03-16T08:07:53.230Z,98341.66
2024-03-16T08:10:20.030Z,98343.44
2024-03-16T08:12:47.007Z,98341.66
2024-03-16T08:15:14.273Z,98322.66
2024-03-16T08:17:40.984Z,98342.47
2024-03-16T08:20:09.465Z,98342.34
2024-03-16T08:22:36.318Z,98336.22
2024-03-16T08:25:03.232Z,98347.53
2024-03-16T08:27:33.464Z,98342.13
2024-03-16T08:30:02.318Z,98343.69
2024-03-16T08:32:30.750Z,98343.69
2024-03-16T08:34:58.068Z,98346.19
2024-03-16T08:37:25.358Z,98341.84
2024-03-16T08:39:52.216Z,98345.22
2024-03-16T08:42:18.848Z,98348.72
2024-03-16T08:44:45.565Z,98339.81
2024-03-16T08:47:12.225Z,98337.16
2024-03-16T08:49:38.828Z,98343.19
2024-03-16T08:52:05.589Z,98341.28
2024-03-16T08:54:33.826Z,98332.34
2024-03-16T08:57:01.599Z,98336.66
2024-03-16T08:59:29.081Z,98333.06
2024-03-16T09:01:55.928Z,98337.41
2024-03-16T09:04:22.824Z,98334.63
2024-03-16T09:06:49.406Z,98331.00
2024-03-16T09:09:17.553Z,98343.16
2024-03-16T09:11:44.758Z,98337.72
2024-03-16T09:14:11.662Z,98336.66
2024-03-16T09:16:41.919Z,98336.53
2024-03-16T09:19:09.153Z,98336.41
2024-03-16T09:21:36.061Z,98301.66
2024-03-16T09:24:02.781Z,98334.06
2024-03-16T09:26:29.435Z,98333.13
2024-03-16T09:28:56.426Z,98326.13
2024-03-16T09:31:26.661Z,98324.06
2024-03-16T09:33:53.703Z,98325.75
2024-03-16T09:36:20.942Z,98333.63
2024-03-16T09:38:48.801Z,98329.13
2024-03-16T09:41:19.622Z,98322.88
